Time;durP1;ratioP1;P1;durP2;ratioP2;P2;SDS_P1;SDS_P2;PMS_P1;PMS_P2;Temp;Humidity;BMP_temperature;BMP_pressure;BME280_temperature;BME280_humidity;BME280_pressure;Samples;Min_cycle;Max_cycle;Signal;HPM_P1;HPM_P2
2022/04/19 00:00:34;;;;;;;;;;;;;;;;;;5034552;28;19917;-24
2022/04/19 00:03:02;;;;;;;;;;;;;;;;;;5034449;28;19913;-24
2022/04/19 00:05:28;;;;;;;;;;;;;;;;;;5034516;28;19975;-24
2022/04/19 00:07:54;;;;;;;;;;;;;;;;;;5035374;28;19913;-25
2022/04/19 00:10:20;;;;;;;;;;;;;;;;;;5038527;28;19913;-24
2022/04/19 00:12:47;;;;;;;;;;;;;;;;;;5038474;28;19909;-24
2022/04/19 00:15:13;;;;;;;;;;;;;;;;;;5038499;28;20364;-25
2022/04/19 00:17:39;;;;;;;;;;;;;;;;;;5020967;28;20402;-24
2022/04/19 00:20:06;;;;;;;;;;;;;;;;;;5038387;28;19913;-24
2022/04/19 00:22:32;;;;;;;;;;;;;;;;;;5038247;28;19978;-25
2022/04/19 00:24:58;;;;;;;;;;;;;;;;;;5038233;28;19939;-24
2022/04/19 00:27:24;;;;;;;;;;;;;;;;;;5038165;28;20000;-25
2022/04/19 00:29:50;;;;;;;;;;;;;;;;;;5038177;28;20027;-24
2022/04/19 00:32:16;;;;;;;;;;;;;;;;;;5020551;28;19909;-24
2022/04/19 00:34:42;;;;;;;;;;;;;;;;;;5038130;28;20286;-24
2022/04/19 00:37:08;;;;;;;;;;;;;;;;;;5038307;28;19917;-24
2022/04/19 00:39:34;;;;;;;;;;;;;;;;;;5038259;28;19913;-24
2022/04/19 00:42:00;;;;;;;;;;;;;;;;;;5037800;28;19923;-24
2022/04/19 00:44:26;;;;;;;;;;;;;;;;;;5037932;28;20023;-24
2022/04/19 00:46:53;;;;;;;;;;;;;;;;;;5038206;28;20237;-24
2022/04/19 00:49:19;;;;;;;;;;;;;;;;;;5037937;28;19910;-25
2022/04/19 00:51:45;;;;;;;;;;;;;;;;;;5037837;28;19927;-24
2022/04/19 00:54:11;;;;;;;;;;;;;;;;;;5037794;28;19936;-24
2022/04/19 00:56:37;;;;;;;;;;;;;;;;;;5037673;28;19916;-24
2022/04/19 00:59:03;;;;;;;;;;;;;;;;;;5037808;28;19970;-24
2022/04/19 01:01:29;;;;;;;;;;;;;;;;;;5037611;28;20383;-24
2022/04/19 01:03:58;;;;;;;;;;;;;;;;;;5037350;28;19917;-24
2022/04/19 01:06:24;;;;;;;;;;;;;;;;;;5020052;28;19967;-24
2022/04/19 01:08:50;;;;;;;;;;;;;;;;;;5037621;28;20008;-24
2022/04/19 01:14:03;;;;;;;;;;;;;;;;;;5037490;28;19916;-24
2022/04/19 01:16:29;;;;;;;;;;;;;;;;;;5037440;28;19959;-24
2022/04/19 01:18:55;;;;;;;;;;;;;;;;;;5037212;28;20307;-25
2022/04/19 01:21:21;;;;;;;;;;;;;;;;;;5037312;28;19963;-25
2022/04/19 01:23:49;;;;;;;;;;;;;;;;;;5037193;28;20262;-24
2022/04/19 01:26:15;;;;;;;;;;;;;;;;;;5037519;28;19975;-24
2022/04/19 01:28:41;;;;;;;;;;;;;;;;;;5037178;28;20317;-25
2022/04/19 01:31:07;;;;;;;;;;;;;;;;;;5037108;28;19913;-24
2022/04/19 01:33:33;;;;;;;;;;;;;;;;;;5037012;28;19967;-25
2022/04/19 01:35:59;;;;;;;;;;;;;;;;;;5037309;28;19913;-24
2022/04/19 01:38:25;;;;;;;;;;;;;;;;;;5037043;28;19916;-24
2022/04/19 01:40:51;;;;;;;;;;;;;;;;;;5037180;28;19917;-25
2022/04/19 01:43:19;;;;;;;;;;;;;;;;;;5036773;28;19913;-25
2022/04/19 01:45:45;;;;;;;;;;;;;;;;;;5036754;28;19917;-24
2022/04/19 01:48:12;;;;;;;;;;;;;;;;;;5036846;28;19917;-24
2022/04/19 01:50:38;;;;;;;;;;;;;;;;;;5036996;28;19924;-25
2022/04/19 01:53:04;;;;;;;;;;;;;;;;;;5036722;28;20395;-24
2022/04/19 01:55:30;;;;;;;;;;;;;;;;;;5036947;28;19989;-25
2022/04/19 01:57:56;;;;;;;;;;;;;;;;;;5036651;28;20256;-24
2022/04/19 02:00:22;;;;;;;;;;;;;;;;;;5036837;28;19913;-24
2022/04/19 02:02:48;;;;;;;;;;;;;;;;;;5036378;28;20249;-24
2022/04/19 02:05:14;;;;;;;;;;;;;;;;;;5036304;28;19928;-24
2022/04/19 02:07:40;;;;;;;;;;;;;;;;;;5036464;28;19909;-24
2022/04/19 02:10:06;;;;;;;;;;;;;;;;;;5036450;28;19932;-24
2022/04/19 02:12:33;;;;;;;;;;;;;;;;;;5036439;28;19909;-25
2022/04/19 02:14:59;;;;;;;;;;;;;;;;;;5036581;28;19917;-24
2022/04/19 02:17:25;;;;;;;;;;;;;;;;;;5018646;28;20458;-24
2022/04/19 02:19:51;;;;;;;;;;;;;;;;;;5036412;28;19959;-24
2022/04/19 02:22:19;;;;;;;;;;;;;;;;;;5036313;28;19924;-24
2022/04/19 02:24:45;;;;;;;;;;;;;;;;;;5036299;28;20259;-24
2022/04/19 02:27:12;;;;;;;;;;;;;;;;;;5036381;28;19924;-24
2022/04/19 02:29:38;;;;;;;;;;;;;;;;;;5035989;28;20051;-24
2022/04/19 02:32:04;;;;;;;;;;;;;;;;;;5035169;28;19956;-25
2022/04/19 02:34:30;;;;;;;;;;;;;;;;;;5036028;28;19917;-25
2022/04/19 02:36:56;;;;;;;;;;;;;;;;;;5035843;28;20241;-24
2022/04/19 02:39:22;;;;;;;;;;;;;;;;;;5036119;28;19909;-24
2022/04/19 02:41:48;;;;;;;;;;;;;;;;;;5035639;28;19913;-24
2022/04/19 02:44:14;;;;;;;;;;;;;;;;;;5018284;28;19967;-24
2022/04/19 02:46:40;;;;;;;;;;;;;;;;;;5035610;28;19913;-24
2022/04/19 02:49:06;;;;;;;;;;;;;;;;;;5035899;28;19913;-24
2022/04/19 02:51:32;;;;;;;;;;;;;;;;;;5018915;28;19913;-24
2022/04/19 02:53:59;;;;;;;;;;;;;;;;;;5035524;28;19917;-24
2022/04/19 02:56:25;;;;;;;;;;;;;;;;;;5035726;28;19913;-24
2022/04/19 02:58:51;;;;;;;;;;;;;;;;;;5035487;28;19910;-24
2022/04/19 03:01:17;;;;;;;;;;;;;;;;;;5035346;28;20304;-25
2022/04/19 03:03:43;;;;;;;;;;;;;;;;;;5035143;28;20028;-25
2022/04/19 03:06:09;;;;;;;;;;;;;;;;;;5035620;28;19913;-24
2022/04/19 03:08:35;;;;;;;;;;;;;;;;;;5035339;28;19959;-24
2022/04/19 03:11:01;;;;;;;;;;;;;;;;;;5035278;28;19917;-24
2022/04/19 03:13:27;;;;;;;;;;;;;;;;;;5035152;28;19914;-25
2022/04/19 03:15:54;;;;;;;;;;;;;;;;;;5017674;28;19913;-24
2022/04/19 03:18:20;;;;;;;;;;;;;;;;;;5017695;28;19910;-24
2022/04/19 03:20:46;;;;;;;;;;;;;;;;;;5034982;28;19924;-24
2022/04/19 03:28:41;;;;;;;;;;;;;;;;;;5034942;28;19920;-24
2022/04/19 03:31:08;;;;;;;;;;;;;;;;;;5034785;28;19913;-24
2022/04/19 03:33:36;;;;;;;;;;;;;;;;;;5034736;28;19909;-24
2022/04/19 03:36:02;;;;;;;;;;;;;;;;;;5034598;28;19947;-24
2022/04/19 03:38:28;;;;;;;;;;;;;;;;;;5034968;28;19913;-25
2022/04/19 03:40:54;;;;;;;;;;;;;;;;;;5017130;28;20016;-24
2022/04/19 03:43:20;;;;;;;;;;;;;;;;;;5033553;28;20263;-24
2022/04/19 03:45:46;;;;;;;;;;;;;;;;;;5034422;28;20248;-24
2022/04/19 03:48:13;;;;;;;;;;;;;;;;;;5034505;28;19909;-24
2022/04/19 03:50:39;;;;;;;;;;;;;;;;;;5034394;28;19913;-25
2022/04/19 03:53:06;;;;;;;;;;;;;;;;;;5034536;28;20218;-24
2022/04/19 03:55:31;;;;;;;;;;;;;;;;;;5034241;28;19924;-24
2022/04/19 03:57:58;;;;;;;;;;;;;;;;;;5034237;28;19992;-24
2022/04/19 04:00:23;;;;;;;;;;;;;;;;;;5034484;28;20294;-24
2022/04/19 04:02:49;;;;;;;;;;;;;;;;;;5034100;28;19914;-24
2022/04/19 04:05:15;;;;;;;;;;;;;;;;;;5034110;28;19916;-24
2022/04/19 04:07:42;;;;;;;;;;;;;;;;;;5034200;28;20003;-26
2022/04/19 04:10:08;;;;;;;;;;;;;;;;;;5034100;28;19948;-27
2022/04/19 04:12:34;;;;;;;;;;;;;;;;;;5034095;28;19913;-24
2022/04/19 04:15:02;;;;;;;;;;;;;;;;;;5033900;28;19924;-25
2022/04/19 04:17:29;;;;;;;;;;;;;;;;;;5033959;28;19928;-24
2022/04/19 04:19:55;;;;;;;;;;;;;;;;;;5034005;28;19960;-24
2022/04/19 04:22:21;;;;;;;;;;;;;;;;;;5033889;28;20271;-24
2022/04/19 04:24:47;;;;;;;;;;;;;;;;;;5016341;28;19991;-24
2022/04/19 04:27:13;;;;;;;;;;;;;;;;;;5034037;28;20019;-25
2022/04/19 04:29:39;;;;;;;;;;;;;;;;;;5034200;28;19944;-26
2022/04/19 04:32:05;;;;;;;;;;;;;;;;;;5033852;28;19909;-27
2022/04/19 04:34:31;;;;;;;;;;;;;;;;;;5034084;28;19913;-26
2022/04/19 04:36:57;;;;;;;;;;;;;;;;;;5016178;28;20339;-26
2022/04/19 04:39:23;;;;;;;;;;;;;;;;;;5016184;28;19915;-26
2022/04/19 04:41:49;;;;;;;;;;;;;;;;;;5033677;28;19913;-27
2022/04/19 04:44:15;;;;;;;;;;;;;;;;;;5033741;28;19924;-26
2022/04/19 04:49:35;;;;;;;;;;;;;;;;;;5033730;28;19920;-25
2022/04/19 04:52:04;;;;;;;;;;;;;;;;;;5016247;28;20011;-24
2022/04/19 04:54:30;;;;;;;;;;;;;;;;;;5017954;28;19913;-24
2022/04/19 04:57:01;;;;;;;;;;;;;;;;;;5037407;28;19913;-25
2022/04/19 04:59:29;;;;;;;;;;;;;;;;;;5019733;28;19932;-25
2022/04/19 05:01:57;;;;;;;;;;;;;;;;;;5036985;28;20237;-25
2022/04/19 05:04:23;;;;;;;;;;;;;;;;;;5036960;28;20336;-25
2022/04/19 05:06:49;;;;;;;;;;;;;;;;;;5019631;28;19971;-25
2022/04/19 05:09:17;;;;;;;;;;;;;;;;;;5019984;28;19943;-25
2022/04/19 05:11:46;;;;;;;;;;;;;;;;;;5037165;28;19913;-25
2022/04/19 05:14:12;;;;;;;;;;;;;;;;;;5037265;28;19909;-25
2022/04/19 05:16:38;;;;;;;;;;;;;;;;;;5036816;28;19917;-25
2022/04/19 05:19:05;;;;;;;;;;;;;;;;;;5036815;28;20247;-25
2022/04/19 05:21:32;;;;;;;;;;;;;;;;;;5036912;28;20005;-25
2022/04/19 05:24:00;;;;;;;;;;;;;;;;;;5036507;28;19921;-25
2022/04/19 05:26:28;;;;;;;;;;;;;;;;;;5036846;28;19963;-25
2022/04/19 05:28:54;;;;;;;;;;;;;;;;;;5036627;28;19917;-25
2022/04/19 05:34:12;;;;;;;;;;;;;;;;;;5037011;28;20016;-25
2022/04/19 05:36:45;;;;;;;;;;;;;;;;;;5036479;28;19914;-25
2022/04/19 05:39:11;;;;;;;;;;;;;;;;;;5036654;28;19966;-25
2022/04/19 05:41:40;;;;;;;;;;;;;;;;;;5036442;28;20408;-28
2022/04/19 05:44:09;;;;;;;;;;;;;;;;;;5035876;28;20340;-25
2022/04/19 05:46:39;;;;;;;;;;;;;;;;;;5036603;28;19924;-26
2022/04/19 05:49:08;;;;;;;;;;;;;;;;;;5036249;28;19917;-24
2022/04/19 05:51:36;;;;;;;;;;;;;;;;;;5036241;28;19924;-24
2022/04/19 05:54:02;;;;;;;;;;;;;;;;;;5036064;28;20283;-24
2022/04/19 05:56:33;;;;;;;;;;;;;;;;;;5018627;28;20348;-24
2022/04/19 05:59:00;;;;;;;;;;;;;;;;;;5035896;28;19909;-24
2022/04/19 06:06:55;;;;;;;;;;;;;;;;;;5035091;28;20312;-25
2022/04/19 06:09:22;;;;;;;;;;;;;;;;;;5036294;28;19909;-24
2022/04/19 06:11:49;;;;;;;;;;;;;;;;;;5035323;28;19996;-24
2022/04/19 06:31:14;;;;;;;;;;;;;;;;;;5073300;28;19978;-24
2022/04/19 06:33:40;;;;;;;;;;;;;;;;;;5074280;28;19908;-25
2022/04/19 06:36:07;;;;;;;;;;;;;;;;;;5074549;28;19917;-24
2022/04/19 06:38:34;;;;;;;;;;;;;;;;;;5059502;28;20211;-24
2022/04/19 06:41:00;;;;;;;;;;;;;;;;;;5055194;28;19912;-24
2022/04/19 06:43:27;;;;;;;;;;;;;;;;;;5055402;28;19924;-24
2022/04/19 06:45:53;;;;;;;;;;;;;;;;;;5037618;28;19988;-24
2022/04/19 06:48:20;;;;;;;;;;;;;;;;;;5055026;28;19940;-24
2022/04/19 06:50:46;;;;;;;;;;;;;;;;;;5055304;28;20335;-24
2022/04/19 06:53:13;;;;;;;;;;;;;;;;;;5055147;28;20305;-24
2022/04/19 06:55:39;;;;;;;;;;;;;;;;;;5037079;28;20025;-24
2022/04/19 06:58:06;;;;;;;;;;;;;;;;;;5054677;28;19909;-24
2022/04/19 07:00:34;;;;;;;;;;;;;;;;;;5054631;28;20409;-24
2022/04/19 07:03:00;;;;;;;;;;;;;;;;;;5054538;28;20241;-24
2022/04/19 07:05:26;;;;;;;;;;;;;;;;;;5054536;28;20256;-24
2022/04/19 07:07:53;;;;;;;;;;;;;;;;;;5054347;28;19970;-24
2022/04/19 07:10:19;;;;;;;;;;;;;;;;;;5036696;28;19936;-24
2022/04/19 07:12:47;;;;;;;;;;;;;;;;;;5054797;28;19909;-24
2022/04/19 07:15:15;;;;;;;;;;;;;;;;;;5054333;28;19987;-24
2022/04/19 07:17:43;;;;;;;;;;;;;;;;;;5054119;28;19912;-24
2022/04/19 07:28:23;;;;;;;;;;;;;;;;;;5054295;28;19923;-25
2022/04/19 07:30:51;;;;;;;;;;;;;;;;;;5035895;28;20400;-26
2022/04/19 07:33:18;;;;;;;;;;;;;;;;;;5036472;28;20003;-26
2022/04/19 07:35:45;;;;;;;;;;;;;;;;;;5054074;28;19912;-25
2022/04/19 07:38:12;;;;;;;;;;;;;;;;;;5054032;28;19909;-26
2022/04/19 07:40:39;;;;;;;;;;;;;;;;;;5054094;28;19913;-23
2022/04/19 07:43:06;;;;;;;;;;;;;;;;;;5053715;28;19913;-25
2022/04/19 07:45:33;;;;;;;;;;;;;;;;;;5053585;28;19913;-24
2022/04/19 07:47:59;;;;;;;;;;;;;;;;;;5035987;28;20294;-26
2022/04/19 07:50:25;;;;;;;;;;;;;;;;;;5053946;28;19913;-26
2022/04/19 07:52:52;;;;;;;;;;;;;;;;;;5053929;28;19909;-25
2022/04/19 07:55:18;;;;;;;;;;;;;;;;;;5054220;28;19980;-26
2022/04/19 07:57:45;;;;;;;;;;;;;;;;;;5053730;28;19935;-23
2022/04/19 08:00:11;;;;;;;;;;;;;;;;;;5054148;28;19920;-22
2022/04/19 08:02:38;;;;;;;;;;;;;;;;;;5054061;28;20338;-23
2022/04/19 08:05:04;;;;;;;;;;;;;;;;;;5053905;28;19920;-23
2022/04/19 08:07:30;;;;;;;;;;;;;;;;;;5053731;28;19909;-23
2022/04/19 08:09:58;;;;;;;;;;;;;;;;;;5053847;28;19913;-23
2022/04/19 08:12:26;;;;;;;;;;;;;;;;;;5035935;28;19916;-23
2022/04/19 08:14:52;;;;;;;;;;;;;;;;;;5053826;28;20004;-23
2022/04/19 08:17:19;;;;;;;;;;;;;;;;;;5036136;28;20000;-24
2022/04/19 08:19:45;;;;;;;;;;;;;;;;;;5036502;28;20354;-24
2022/04/19 08:22:11;;;;;;;;;;;;;;;;;;5054273;28;19913;-24
2022/04/19 08:24:38;;;;;;;;;;;;;;;;;;5036322;28;20310;-24
2022/04/19 08:27:04;;;;;;;;;;;;;;;;;;5054047;28;19956;-24
2022/04/19 08:29:30;;;;;;;;;;;;;;;;;;5055830;28;19958;-23
2022/04/19 08:31:56;;;;;;;;;;;;;;;;;;5057763;28;19917;-24
2022/04/19 08:34:22;;;;;;;;;;;;;;;;;;5057964;28;19909;-24
2022/04/19 08:36:49;;;;;;;;;;;;;;;;;;5057698;28;19913;-24
2022/04/19 08:39:15;;;;;;;;;;;;;;;;;;5057490;28;19948;-24
2022/04/19 08:41:41;;;;;;;;;;;;;;;;;;5057121;28;19913;-24
2022/04/19 08:44:08;;;;;;;;;;;;;;;;;;5056883;28;20358;-24
2022/04/19 08:46:35;;;;;;;;;;;;;;;;;;5056641;28;19912;-24
2022/04/19 08:49:03;;;;;;;;;;;;;;;;;;5038813;28;20351;-25
2022/04/19 08:51:30;;;;;;;;;;;;;;;;;;5039022;28;19966;-25
2022/04/19 08:59:26;;;;;;;;;;;;;;;;;;5056724;28;19924;-24
2022/04/19 09:01:56;;;;;;;;;;;;;;;;;;5038520;28;19966;-25
2022/04/19 09:04:26;;;;;;;;;;;;;;;;;;5056569;28;19917;-25
2022/04/19 09:06:53;;;;;;;;;;;;;;;;;;5056267;28;19912;-24
2022/04/19 09:09:22;;;;;;;;;;;;;;;;;;5056360;28;20008;-25
2022/04/19 09:11:48;;;;;;;;;;;;;;;;;;5056353;28;19966;-24
2022/04/19 09:17:06;;;;;;;;;;;;;;;;;;5056198;28;19919;-24
2022/04/19 09:19:32;;;;;;;;;;;;;;;;;;5056037;28;19971;-25
2022/04/19 09:22:00;;;;;;;;;;;;;;;;;;5038614;28;19919;-25
2022/04/19 09:24:26;;;;;;;;;;;;;;;;;;5056815;28;19920;-26
2022/04/19 09:29:42;;;;;;;;;;;;;;;;;;5056586;28;19924;-25
2022/04/19 09:32:08;;;;;;;;;;;;;;;;;;5039011;28;19916;-24
2022/04/19 09:34:36;;;;;;;;;;;;;;;;;;5056329;28;20304;-24
2022/04/19 09:37:04;;;;;;;;;;;;;;;;;;5056647;28;19913;-25
2022/04/19 09:39:32;;;;;;;;;;;;;;;;;;5056080;28;20312;-24
2022/04/19 09:41:58;;;;;;;;;;;;;;;;;;5038502;28;20315;-25
2022/04/19 09:44:26;;;;;;;;;;;;;;;;;;5038308;28;20370;-24
2022/04/19 09:46:52;;;;;;;;;;;;;;;;;;5038477;28;19913;-25
2022/04/19 09:49:18;;;;;;;;;;;;;;;;;;5056596;28;19919;-24
2022/04/19 09:51:45;;;;;;;;;;;;;;;;;;5038564;28;20258;-24
2022/04/19 09:54:11;;;;;;;;;;;;;;;;;;5038480;28;20034;-24
2022/04/19 09:56:37;;;;;;;;;;;;;;;;;;5056157;28;19915;-25
2022/04/19 09:59:03;;;;;;;;;;;;;;;;;;5056177;28;20399;-24
2022/04/19 10:09:28;;;;;;;;;;;;;;;;;;5055992;28;19908;-24
2022/04/19 10:11:54;;;;;;;;;;;;;;;;;;5038306;28;20403;-24
2022/04/19 10:14:20;;;;;;;;;;;;;;;;;;5055853;28;19999;-24
2022/04/19 10:16:49;;;;;;;;;;;;;;;;;;5055751;28;19916;-25
2022/04/19 10:19:21;;;;;;;;;;;;;;;;;;5055854;28;19954;-24
2022/04/19 10:21:58;;;;;;;;;;;;;;;;;;5056202;28;19912;-24
2022/04/19 10:24:25;;;;;;;;;;;;;;;;;;5055820;28;19943;-24
2022/04/19 10:26:55;;;;;;;;;;;;;;;;;;5038200;28;19920;-26
2022/04/19 10:29:23;;;;;;;;;;;;;;;;;;5038141;28;20339;-24
2022/04/19 10:31:49;;;;;;;;;;;;;;;;;;5055169;28;19927;-24
2022/04/19 10:34:17;;;;;;;;;;;;;;;;;;5037849;28;19986;-24
2022/04/19 10:36:47;;;;;;;;;;;;;;;;;;5037520;28;19917;-24
2022/04/19 10:39:13;;;;;;;;;;;;;;;;;;5055447;28;20280;-25
2022/04/19 10:41:40;;;;;;;;;;;;;;;;;;5055941;28;19913;-24
2022/04/19 10:44:07;;;;;;;;;;;;;;;;;;5037510;28;19990;-24
2022/04/19 10:46:33;;;;;;;;;;;;;;;;;;5055256;28;19916;-24
2022/04/19 10:48:59;;;;;;;;;;;;;;;;;;5055357;28;20012;-24
2022/04/19 10:51:26;;;;;;;;;;;;;;;;;;5054862;28;19919;-24
2022/04/19 10:53:53;;;;;;;;;;;;;;;;;;5055009;28;19999;-24
2022/04/19 10:56:20;;;;;;;;;;;;;;;;;;5055052;28;20000;-23
2022/04/19 10:58:46;;;;;;;;;;;;;;;;;;5054484;28;20003;-24
2022/04/19 11:01:13;;;;;;;;;;;;;;;;;;5054361;28;19913;-25
2022/04/19 11:03:41;;;;;;;;;;;;;;;;;;5054345;28;19923;-24
2022/04/19 11:06:11;;;;;;;;;;;;;;;;;;5054760;28;19924;-24
2022/04/19 11:08:37;;;;;;;;;;;;;;;;;;5054410;28;19964;-24
2022/04/19 11:11:07;;;;;;;;;;;;;;;;;;5054633;28;20315;-25
2022/04/19 11:13:34;;;;;;;;;;;;;;;;;;5054332;28;19909;-24
2022/04/19 11:16:00;;;;;;;;;;;;;;;;;;5054191;28;19945;-24
2022/04/19 11:18:26;;;;;;;;;;;;;;;;;;5054073;28;20301;-24
2022/04/19 11:20:53;;;;;;;;;;;;;;;;;;5054253;28;19916;-24
2022/04/19 11:23:19;;;;;;;;;;;;;;;;;;5036666;28;19912;-24
2022/04/19 11:25:48;;;;;;;;;;;;;;;;;;5054426;28;19924;-24
2022/04/19 11:28:14;;;;;;;;;;;;;;;;;;5054618;28;20004;-24
2022/04/19 11:30:40;;;;;;;;;;;;;;;;;;5054347;28;20007;-24
2022/04/19 11:33:08;;;;;;;;;;;;;;;;;;5054421;28;19909;-24
2022/04/19 11:35:35;;;;;;;;;;;;;;;;;;5054308;28;19932;-24
2022/04/19 11:38:01;;;;;;;;;;;;;;;;;;5054344;28;19909;-25
2022/04/19 11:48:50;;;;;;;;;;;;;;;;;;5054455;28;19923;-24
2022/04/19 11:51:17;;;;;;;;;;;;;;;;;;5054443;28;19913;-24
2022/04/19 11:53:49;;;;;;;;;;;;;;;;;;5053960;28;19917;-24
2022/04/19 11:56:16;;;;;;;;;;;;;;;;;;5036140;28;19992;-24
2022/04/19 11:58:43;;;;;;;;;;;;;;;;;;5054147;28;19966;-24
2022/04/19 12:01:28;;;;;;;;;;;;;;;;;;5054203;28;20282;-24
2022/04/19 12:03:54;;;;;;;;;;;;;;;;;;5035383;28;19912;-24
2022/04/19 12:06:23;;;;;;;;;;;;;;;;;;5053809;28;20266;-24
2022/04/19 12:08:50;;;;;;;;;;;;;;;;;;5053724;28;19909;-24
2022/04/19 12:11:16;;;;;;;;;;;;;;;;;;5053678;28;20358;-24
2022/04/19 12:13:44;;;;;;;;;;;;;;;;;;5053840;28;19913;-24
2022/04/19 12:16:10;;;;;;;;;;;;;;;;;;5036166;28;19912;-24
2022/04/19 12:18:36;;;;;;;;;;;;;;;;;;5054031;28;19917;-24
2022/04/19 12:21:04;;;;;;;;;;;;;;;;;;5053885;28;19923;-24
2022/04/19 12:23:30;;;;;;;;;;;;;;;;;;5054107;28;19913;-24
2022/04/19 12:25:57;;;;;;;;;;;;;;;;;;5053792;28;19913;-24
2022/04/19 12:28:23;;;;;;;;;;;;;;;;;;5036365;28;19967;-24
2022/04/19 12:30:49;;;;;;;;;;;;;;;;;;5053615;28;19921;-25
2022/04/19 12:33:15;;;;;;;;;;;;;;;;;;5053829;28;20231;-24
2022/04/19 12:35:42;;;;;;;;;;;;;;;;;;5054162;28;20000;-24
2022/04/19 12:38:09;;;;;;;;;;;;;;;;;;5053972;28;19920;-23
2022/04/19 12:40:35;;;;;;;;;;;;;;;;;;5053895;28;20008;-25
2022/04/19 12:43:01;;;;;;;;;;;;;;;;;;5036268;28;19912;-24
2022/04/19 12:45:27;;;;;;;;;;;;;;;;;;5053928;28;19920;-25
2022/04/19 12:47:57;;;;;;;;;;;;;;;;;;5054087;28;20255;-24
2022/04/19 12:50:23;;;;;;;;;;;;;;;;;;5053775;28;19916;-24
2022/04/19 12:52:50;;;;;;;;;;;;;;;;;;5053650;28;19992;-24
2022/04/19 12:55:15;;;;;;;;;;;;;;;;;;5053504;28;20129;-24
2022/04/19 12:57:45;;;;;;;;;;;;;;;;;;5035644;28;20344;-24
2022/04/19 13:00:11;;;;;;;;;;;;;;;;;;5035696;28;20259;-24
2022/04/19 13:02:37;;;;;;;;;;;;;;;;;;5053321;28;20247;-24
2022/04/19 13:05:03;;;;;;;;;;;;;;;;;;5053569;28;19921;-24
2022/04/19 13:12:59;;;;;;;;;;;;;;;;;;5053493;28;19920;-24
2022/04/19 13:15:25;;;;;;;;;;;;;;;;;;5054740;28;19913;-23
2022/04/19 13:17:51;;;;;;;;;;;;;;;;;;5057213;28;19908;-24
2022/04/19 13:20:17;;;;;;;;;;;;;;;;;;5057301;28;20237;-24
2022/04/19 13:22:43;;;;;;;;;;;;;;;;;;5057262;28;20308;-24
2022/04/19 13:25:09;;;;;;;;;;;;;;;;;;5056730;28;19923;-24
2022/04/19 13:27:35;;;;;;;;;;;;;;;;;;5057062;28;19992;-24
2022/04/19 13:30:01;;;;;;;;;;;;;;;;;;5056171;28;19920;-24
2022/04/19 13:32:28;;;;;;;;;;;;;;;;;;5056949;28;19908;-25
2022/04/19 13:34:54;;;;;;;;;;;;;;;;;;5056807;28;20062;-25
2022/04/19 13:38:23;;;;;;;;;;;;;;;;;;5056728;28;20259;-25
2022/04/19 13:40:06;;;;;;;;;;;;;;;;;;5056449;28;19920;-24
2022/04/19 13:42:32;;;;;;;;;;;;;;;;;;5056920;28;19944;-24
2022/04/19 13:44:58;;;;;;;;;;;;;;;;;;5056495;28;19917;-24
2022/04/19 13:47:24;;;;;;;;;;;;;;;;;;5056524;28;20271;-24
2022/04/19 13:49:50;;;;;;;;;;;;;;;;;;5056775;28;20223;-24
2022/04/19 13:52:16;;;;;;;;;;;;;;;;;;5056565;28;19908;-24
2022/04/19 13:54:43;;;;;;;;;;;;;;;;;;5056521;28;20221;-24
2022/04/19 13:57:09;;;;;;;;;;;;;;;;;;5056469;28;20370;-24
2022/04/19 13:59:36;;;;;;;;;;;;;;;;;;5038543;28;19912;-24
2022/04/19 14:02:03;;;;;;;;;;;;;;;;;;5056396;28;19916;-24
2022/04/19 14:04:29;;;;;;;;;;;;;;;;;;5056039;28;19956;-24
2022/04/19 14:06:55;;;;;;;;;;;;;;;;;;5038515;28;19974;-24
2022/04/19 14:09:21;;;;;;;;;;;;;;;;;;5056236;28;20276;-24
2022/04/19 14:11:47;;;;;;;;;;;;;;;;;;5056166;28;19927;-24
2022/04/19 14:14:14;;;;;;;;;;;;;;;;;;5055988;28;20003;-25
2022/04/19 14:16:40;;;;;;;;;;;;;;;;;;5056160;28;20040;-24
2022/04/19 14:19:06;;;;;;;;;;;;;;;;;;5055804;28;19935;-25
2022/04/19 14:21:32;;;;;;;;;;;;;;;;;;5055976;28;19932;-25
2022/04/19 14:23:58;;;;;;;;;;;;;;;;;;5055783;28;20347;-24
2022/04/19 14:26:24;;;;;;;;;;;;;;;;;;5037296;28;20007;-24
2022/04/19 14:34:20;;;;;;;;;;;;;;;;;;5056050;28;19919;-24
2022/04/19 14:36:46;;;;;;;;;;;;;;;;;;5055615;28;19913;-24
2022/04/19 14:39:12;;;;;;;;;;;;;;;;;;5055630;28;20309;-24
2022/04/19 14:41:38;;;;;;;;;;;;;;;;;;5055484;28;19931;-24
2022/04/19 14:44:05;;;;;;;;;;;;;;;;;;5055724;28;19921;-24
2022/04/19 14:46:31;;;;;;;;;;;;;;;;;;5055511;28;19923;-25
2022/04/19 14:48:57;;;;;;;;;;;;;;;;;;5055304;28;19921;-24
2022/04/19 14:54:08;;;;;;;;;;;;;;;;;;5055600;28;19919;-24
2022/04/19 14:56:34;;;;;;;;;;;;;;;;;;5055309;28;19924;-24
2022/04/19 14:59:00;;;;;;;;;;;;;;;;;;5055487;28;19967;-24
2022/04/19 15:01:27;;;;;;;;;;;;;;;;;;5055343;28;19962;-24
2022/04/19 15:03:53;;;;;;;;;;;;;;;;;;5054964;28;20370;-24
2022/04/19 15:06:19;;;;;;;;;;;;;;;;;;5055239;28;19913;-24
2022/04/19 15:08:45;;;;;;;;;;;;;;;;;;5054950;28;19917;-24
2022/04/19 15:11:12;;;;;;;;;;;;;;;;;;5036892;28;19940;-24
2022/04/19 15:13:38;;;;;;;;;;;;;;;;;;5054031;28;19948;-25
2022/04/19 15:16:04;;;;;;;;;;;;;;;;;;5054320;28;19913;-24
2022/04/19 15:18:31;;;;;;;;;;;;;;;;;;5053982;28;20382;-24
2022/04/19 15:20:57;;;;;;;;;;;;;;;;;;5054135;28;19912;-24
2022/04/19 15:23:23;;;;;;;;;;;;;;;;;;5053910;28;19916;-25
2022/04/19 15:25:49;;;;;;;;;;;;;;;;;;5054210;28;19924;-24
2022/04/19 15:28:15;;;;;;;;;;;;;;;;;;5053909;28;19908;-24
2022/04/19 15:30:41;;;;;;;;;;;;;;;;;;5053747;28;20058;-24
2022/04/19 15:33:07;;;;;;;;;;;;;;;;;;5054023;28;20001;-24
2022/04/19 15:35:33;;;;;;;;;;;;;;;;;;5054213;28;20208;-24
2022/04/19 15:37:59;;;;;;;;;;;;;;;;;;5054555;28;20251;-24
2022/04/19 15:40:27;;;;;;;;;;;;;;;;;;5054322;28;19939;-24
2022/04/19 15:42:53;;;;;;;;;;;;;;;;;;5054587;28;19919;-24
2022/04/19 15:45:19;;;;;;;;;;;;;;;;;;5054495;28;19920;-25
2022/04/19 15:47:46;;;;;;;;;;;;;;;;;;5037418;28;20026;-24
2022/04/19 15:50:12;;;;;;;;;;;;;;;;;;5054643;28;19940;-24
2022/04/19 15:52:38;;;;;;;;;;;;;;;;;;5054309;28;19934;-24
2022/04/19 15:55:04;;;;;;;;;;;;;;;;;;5054210;28;19960;-24
2022/04/19 15:57:30;;;;;;;;;;;;;;;;;;5054227;28;19909;-24
2022/04/19 15:59:56;;;;;;;;;;;;;;;;;;5054645;28;20381;-24
2022/04/19 16:02:22;;;;;;;;;;;;;;;;;;5036581;28;20357;-24
2022/04/19 16:04:48;;;;;;;;;;;;;;;;;;5054098;28;19916;-24
2022/04/19 16:07:15;;;;;;;;;;;;;;;;;;5054519;28;19935;-24
2022/04/19 16:09:42;;;;;;;;;;;;;;;;;;5054596;28;19912;-24
2022/04/19 16:12:08;;;;;;;;;;;;;;;;;;5054603;28;19967;-24
2022/04/19 16:14:34;;;;;;;;;;;;;;;;;;5054285;28;19916;-24
2022/04/19 16:25:14;;;;;;;;;;;;;;;;;;5054206;28;20396;-23
2022/04/19 16:27:40;;;;;;;;;;;;;;;;;;5036403;28;19940;-24
2022/04/19 16:30:07;;;;;;;;;;;;;;;;;;5053846;28;19978;-24
2022/04/19 16:32:34;;;;;;;;;;;;;;;;;;5054055;28;20314;-24
2022/04/19 16:35:00;;;;;;;;;;;;;;;;;;5054061;28;19913;-24
2022/04/19 16:37:28;;;;;;;;;;;;;;;;;;5053841;28;19916;-23
2022/04/19 16:39:53;;;;;;;;;;;;;;;;;;5036001;28;20301;-24
2022/04/19 16:42:20;;;;;;;;;;;;;;;;;;5053536;28;19909;-24
2022/04/19 16:44:46;;;;;;;;;;;;;;;;;;5035987;28;19974;-24
2022/04/19 16:47:12;;;;;;;;;;;;;;;;;;5035930;28;20335;-25
2022/04/19 16:49:38;;;;;;;;;;;;;;;;;;5054260;28;19913;-25
2022/04/19 16:52:05;;;;;;;;;;;;;;;;;;5057943;28;20025;-25
2022/04/19 16:54:32;;;;;;;;;;;;;;;;;;5058058;28;20324;-25
2022/04/19 16:56:59;;;;;;;;;;;;;;;;;;5057609;28;19970;-25
2022/04/19 16:59:25;;;;;;;;;;;;;;;;;;5039751;28;20016;-25
2022/04/19 17:01:51;;;;;;;;;;;;;;;;;;5057329;28;19940;-25
2022/04/19 17:04:17;;;;;;;;;;;;;;;;;;5057314;28;20382;-25
2022/04/19 17:06:43;;;;;;;;;;;;;;;;;;5057444;28;19909;-25
2022/04/19 17:09:09;;;;;;;;;;;;;;;;;;5039819;28;20355;-25
2022/04/19 17:11:35;;;;;;;;;;;;;;;;;;5057475;28;19983;-25
2022/04/19 17:14:01;;;;;;;;;;;;;;;;;;5057189;28;19909;-25
2022/04/19 17:16:27;;;;;;;;;;;;;;;;;;5057324;28;19920;-25
2022/04/19 17:18:55;;;;;;;;;;;;;;;;;;5057194;28;20007;-25
2022/04/19 17:21:21;;;;;;;;;;;;;;;;;;5056938;28;20287;-25
2022/04/19 17:23:47;;;;;;;;;;;;;;;;;;5056889;28;19913;-23
2022/04/19 17:26:19;;;;;;;;;;;;;;;;;;5056963;28;19947;-23
2022/04/19 17:28:45;;;;;;;;;;;;;;;;;;5056954;28;19970;-23
2022/04/19 17:31:12;;;;;;;;;;;;;;;;;;5056750;28;19986;-23
2022/04/19 17:33:38;;;;;;;;;;;;;;;;;;5056876;28;19909;-23
2022/04/19 17:36:05;;;;;;;;;;;;;;;;;;5056794;28;19920;-23
2022/04/19 17:38:31;;;;;;;;;;;;;;;;;;5056780;28;19999;-23
2022/04/19 17:40:57;;;;;;;;;;;;;;;;;;5056551;28;20007;-23
2022/04/19 17:43:24;;;;;;;;;;;;;;;;;;5056173;28;19927;-24
2022/04/19 17:45:50;;;;;;;;;;;;;;;;;;5055791;28;19913;-23
2022/04/19 17:48:16;;;;;;;;;;;;;;;;;;5055750;28;19999;-23
2022/04/19 17:56:31;;;;;;;;;;;;;;;;;;5055685;28;19924;-24
2022/04/19 17:58:57;;;;;;;;;;;;;;;;;;5055706;28;19913;-23
2022/04/19 18:01:23;;;;;;;;;;;;;;;;;;5054291;28;19916;-23
2022/04/19 18:03:50;;;;;;;;;;;;;;;;;;5055456;28;19920;-24
2022/04/19 18:06:16;;;;;;;;;;;;;;;;;;5055351;28;19940;-23
2022/04/19 18:08:42;;;;;;;;;;;;;;;;;;5055384;28;19915;-23
2022/04/19 18:11:11;;;;;;;;;;;;;;;;;;5055360;28;20228;-24
2022/04/19 18:13:37;;;;;;;;;;;;;;;;;;5037624;28;20335;-24
2022/04/19 18:16:04;;;;;;;;;;;;;;;;;;5037516;28;19917;-24
2022/04/19 18:18:30;;;;;;;;;;;;;;;;;;5037498;28;20283;-24
2022/04/19 18:20:56;;;;;;;;;;;;;;;;;;5055646;28;20359;-24